sensor_id;sensor_type;location;lat;lon;timestamp;P1;durP1;ratioP1;P2;durP2;ratioP2
58306;SDS011;44116;50.884;4.768;2022-12-05T00:01:53;76.1;;;35.0;;
58306;SDS011;44116;50.884;4.768;2022-12-05T00:03:58;80.0;;;34.1;;
58306;SDS011;44116;50.884;4.768;2022-12-05T00:05:52;77.0;;;32.8;;
58306;SDS011;44116;50.884;4.768;2022-12-05T00:07:51;83.6;;;34.8;;
58306;SDS011;44116;50.884;4.768;2022-12-05T00:09:51;78.3;;;35.0;;
58306;SDS011;44116;50.884;4.768;2022-12-05T00:11:50;76.0;;;34.6;;
58306;SDS011;44116;50.884;4.768;2022-12-05T00:13:52;77.7;;;34.4;;
58306;SDS011;44116;50.884;4.768;2022-12-05T00:15:49;71.0;;;32.3;;
58306;SDS011;44116;50.884;4.768;2022-12-05T00:17:49;77.2;;;33.4;;
58306;SDS011;44116;50.884;4.768;2022-12-05T00:19:48;78.3;;;33.5;;
58306;SDS011;44116;50.884;4.768;2022-12-05T00:21:48;77.8;;;34.1;;
58306;SDS011;44116;50.884;4.768;2022-12-05T00:23:48;78.5;;;33.9;;
58306;SDS011;44116;50.884;4.768;2022-12-05T00:25:47;84.7;;;34.8;;
58306;SDS011;44116;50.884;4.768;2022-12-05T00:27:47;77.7;;;32.7;;
58306;SDS011;44116;50.884;4.768;2022-12-05T00:29:46;77.0;;;34.1;;
58306;SDS011;44116;50.884;4.768;2022-12-05T00:31:46;80.0;;;34.6;;
58306;SDS011;44116;50.884;4.768;2022-12-05T00:33:46;79.0;;;32.6;;
58306;SDS011;44116;50.884;4.768;2022-12-05T00:35:45;84.1;;;34.0;;
58306;SDS011;44116;50.884;4.768;2022-12-05T00:37:44;82.4;;;33.9;;
58306;SDS011;44116;50.884;4.768;2022-12-05T00:39:44;81.5;;;34.7;;
58306;SDS011;44116;50.884;4.768;2022-12-05T00:41:43;78.8;;;34.1;;
58306;SDS011;44116;50.884;4.768;2022-12-05T00:43:43;78.3;;;33.3;;
58306;SDS011;44116;50.884;4.768;2022-12-05T00:45:42;85.3;;;33.9;;
58306;SDS011;44116;50.884;4.768;2022-12-05T00:47:42;73.7;;;32.7;;
58306;SDS011;44116;50.884;4.768;2022-12-05T00:49:41;81.9;;;33.0;;
58306;SDS011;44116;50.884;4.768;2022-12-05T00:51:42;77.6;;;33.7;;
58306;SDS011;44116;50.884;4.768;2022-12-05T00:53:41;74.3;;;32.2;;
58306;SDS011;44116;50.884;4.768;2022-12-05T00:55:40;75.1;;;33.1;;
58306;SDS011;44116;50.884;4.768;2022-12-05T00:57:39;76.6;;;32.4;;
58306;SDS011;44116;50.884;4.768;2022-12-05T00:59:39;70.7;;;32.6;;
58306;SDS011;44116;50.884;4.768;2022-12-05T01:01:41;74.4;;;33.5;;
58306;SDS011;44116;50.884;4.768;2022-12-05T01:03:39;73.8;;;32.9;;
58306;SDS011;44116;50.884;4.768;2022-12-05T01:05:38;71.1;;;32.5;;
58306;SDS011;44116;50.884;4.768;2022-12-05T01:07:38;72.6;;;31.8;;
58306;SDS011;44116;50.884;4.768;2022-12-05T01:09:37;71.6;;;31.7;;
58306;SDS011;44116;50.884;4.768;2022-12-05T01:11:36;67.0;;;30.7;;
58306;SDS011;44116;50.884;4.768;2022-12-05T01:13:36;70.1;;;31.7;;
58306;SDS011;44116;50.884;4.768;2022-12-05T01:15:35;70.8;;;32.5;;
58306;SDS011;44116;50.884;4.768;2022-12-05T01:19:34;72.3;;;31.6;;
58306;SDS011;44116;50.884;4.768;2022-12-05T01:21:34;69.8;;;32.2;;
58306;SDS011;44116;50.884;4.768;2022-12-05T01:23:33;78.6;;;32.6;;
58306;SDS011;44116;50.884;4.768;2022-12-05T01:25:33;80.2;;;33.1;;
58306;SDS011;44116;50.884;4.768;2022-12-05T01:27:33;72.8;;;32.4;;
58306;SDS011;44116;50.884;4.768;2022-12-05T01:29:32;72.5;;;31.9;;
58306;SDS011;44116;50.884;4.768;2022-12-05T01:31:34;73.4;;;32.1;;
58306;SDS011;44116;50.884;4.768;2022-12-05T01:33:32;69.4;;;31.9;;
58306;SDS011;44116;50.884;4.768;2022-12-05T01:37:30;73.4;;;31.8;;
58306;SDS011;44116;50.884;4.768;2022-12-05T01:39:30;73.4;;;31.6;;
58306;SDS011;44116;50.884;4.768;2022-12-05T01:41:31;72.5;;;32.2;;
58306;SDS011;44116;50.884;4.768;2022-12-05T01:43:30;69.6;;;32.1;;
58306;SDS011;44116;50.884;4.768;2022-12-05T01:45:34;78.1;;;32.2;;
58306;SDS011;44116;50.884;4.768;2022-12-05T01:47:30;75.7;;;33.1;;
58306;SDS011;44116;50.884;4.768;2022-12-05T01:49:31;74.5;;;32.4;;
58306;SDS011;44116;50.884;4.768;2022-12-05T01:51:27;77.3;;;32.2;;
58306;SDS011;44116;50.884;4.768;2022-12-05T01:53:27;75.7;;;32.6;;
58306;SDS011;44116;50.884;4.768;2022-12-05T01:55:26;77.1;;;33.2;;
58306;SDS011;44116;50.884;4.768;2022-12-05T01:57:25;72.8;;;30.5;;
58306;SDS011;44116;50.884;4.768;2022-12-05T01:59:28;74.7;;;32.3;;
58306;SDS011;44116;50.884;4.768;2022-12-05T02:01:24;69.2;;;30.6;;
58306;SDS011;44116;50.884;4.768;2022-12-05T02:03:24;77.9;;;33.2;;
58306;SDS011;44116;50.884;4.768;2022-12-05T02:05:26;70.1;;;30.8;;
58306;SDS011;44116;50.884;4.768;2022-12-05T02:07:23;70.8;;;33.1;;
58306;SDS011;44116;50.884;4.768;2022-12-05T02:09:22;73.7;;;32.4;;
58306;SDS011;44116;50.884;4.768;2022-12-05T02:11:24;70.4;;;32.3;;
58306;SDS011;44116;50.884;4.768;2022-12-05T02:13:30;65.0;;;29.7;;
58306;SDS011;44116;50.884;4.768;2022-12-05T02:15:30;67.2;;;30.6;;
58306;SDS011;44116;50.884;4.768;2022-12-05T02:21:42;71.2;;;31.1;;
58306;SDS011;44116;50.884;4.768;2022-12-05T02:23:30;73.0;;;32.5;;
58306;SDS011;44116;50.884;4.768;2022-12-05T02:25:32;70.4;;;31.0;;
58306;SDS011;44116;50.884;4.768;2022-12-05T02:27:30;71.6;;;31.9;;
58306;SDS011;44116;50.884;4.768;2022-12-05T02:29:36;74.3;;;31.1;;
58306;SDS011;44116;50.884;4.768;2022-12-05T02:31:24;70.4;;;31.6;;
58306;SDS011;44116;50.884;4.768;2022-12-05T02:33:21;73.0;;;31.8;;
58306;SDS011;44116;50.884;4.768;2022-12-05T02:35:29;71.4;;;32.1;;
58306;SDS011;44116;50.884;4.768;2022-12-05T02:37:21;71.9;;;31.7;;
58306;SDS011;44116;50.884;4.768;2022-12-05T02:39:20;75.8;;;32.4;;
58306;SDS011;44116;50.884;4.768;2022-12-05T02:41:21;83.3;;;33.8;;
58306;SDS011;44116;50.884;4.768;2022-12-05T02:43:17;71.7;;;31.5;;
58306;SDS011;44116;50.884;4.768;2022-12-05T02:45:16;71.6;;;32.8;;
58306;SDS011;44116;50.884;4.768;2022-12-05T02:47:16;69.0;;;31.8;;
58306;SDS011;44116;50.884;4.768;2022-12-05T02:49:17;68.0;;;32.6;;
58306;SDS011;44116;50.884;4.768;2022-12-05T02:51:16;73.0;;;31.9;;
58306;SDS011;44116;50.884;4.768;2022-12-05T02:53:15;72.1;;;32.1;;
58306;SDS011;44116;50.884;4.768;2022-12-05T02:55:13;67.5;;;30.4;;
58306;SDS011;44116;50.884;4.768;2022-12-05T02:57:12;64.3;;;31.0;;
58306;SDS011;44116;50.884;4.768;2022-12-05T02:59:11;65.7;;;29.7;;
58306;SDS011;44116;50.884;4.768;2022-12-05T03:01:11;69.3;;;31.5;;
58306;SDS011;44116;50.884;4.768;2022-12-05T03:03:14;67.2;;;30.4;;
58306;SDS011;44116;50.884;4.768;2022-12-05T03:05:16;69.2;;;31.3;;
58306;SDS011;44116;50.884;4.768;2022-12-05T03:07:11;66.9;;;31.0;;
58306;SDS011;44116;50.884;4.768;2022-12-05T03:09:12;68.4;;;31.8;;
58306;SDS011;44116;50.884;4.768;2022-12-05T03:11:08;67.5;;;29.8;;
58306;SDS011;44116;50.884;4.768;2022-12-05T03:13:12;69.2;;;30.6;;
58306;SDS011;44116;50.884;4.768;2022-12-05T03:15:10;63.9;;;31.3;;
58306;SDS011;44116;50.884;4.768;2022-12-05T03:17:10;68.4;;;30.3;;
58306;SDS011;44116;50.884;4.768;2022-12-05T03:19:11;69.7;;;30.8;;
58306;SDS011;44116;50.884;4.768;2022-12-05T03:21:10;68.6;;;31.5;;
58306;SDS011;44116;50.884;4.768;2022-12-05T03:23:08;71.7;;;31.1;;
58306;SDS011;44116;50.884;4.768;2022-12-05T03:25:06;67.4;;;30.9;;
58306;SDS011;44116;50.884;4.768;2022-12-05T03:27:10;72.6;;;31.2;;
58306;SDS011;44116;50.884;4.768;2022-12-05T03:29:18;66.0;;;30.0;;
58306;SDS011;44116;50.884;4.768;2022-12-05T03:31:08;66.2;;;30.5;;
58306;SDS011;44116;50.884;4.768;2022-12-05T03:33:09;71.6;;;32.0;;
58306;SDS011;44116;50.884;4.768;2022-12-05T03:35:07;64.9;;;30.2;;
58306;SDS011;44116;50.884;4.768;2022-12-05T03:39:06;64.8;;;29.5;;
58306;SDS011;44116;50.884;4.768;2022-12-05T03:41:07;65.4;;;29.8;;
58306;SDS011;44116;50.884;4.768;2022-12-05T03:43:07;66.0;;;30.7;;
58306;SDS011;44116;50.884;4.768;2022-12-05T03:45:06;69.8;;;30.6;;
58306;SDS011;44116;50.884;4.768;2022-12-05T03:47:04;66.9;;;31.0;;
58306;SDS011;44116;50.884;4.768;2022-12-05T03:49:04;73.1;;;31.1;;
58306;SDS011;44116;50.884;4.768;2022-12-05T03:51:00;68.4;;;31.5;;
58306;SDS011;44116;50.884;4.768;2022-12-05T03:53:01;68.7;;;31.1;;
58306;SDS011;44116;50.884;4.768;2022-12-05T03:55:00;69.9;;;30.5;;
58306;SDS011;44116;50.884;4.768;2022-12-05T03:57:01;67.9;;;30.2;;
58306;SDS011;44116;50.884;4.768;2022-12-05T03:59:01;62.4;;;29.7;;
58306;SDS011;44116;50.884;4.768;2022-12-05T04:00:58;68.6;;;30.8;;
58306;SDS011;44116;50.884;4.768;2022-12-05T04:03:03;67.4;;;32.1;;
58306;SDS011;44116;50.884;4.768;2022-12-05T04:05:00;69.0;;;30.7;;
58306;SDS011;44116;50.884;4.768;2022-12-05T04:06:57;70.8;;;29.7;;
58306;SDS011;44116;50.884;4.768;2022-12-05T04:08:59;64.3;;;29.5;;
58306;SDS011;44116;50.884;4.768;2022-12-05T04:10:58;65.8;;;30.8;;
58306;SDS011;44116;50.884;4.768;2022-12-05T04:12:55;67.0;;;30.6;;
58306;SDS011;44116;50.884;4.768;2022-12-05T04:14:57;63.8;;;29.1;;
58306;SDS011;44116;50.884;4.768;2022-12-05T04:16:56;66.4;;;30.4;;
58306;SDS011;44116;50.884;4.768;2022-12-05T04:18:58;74.2;;;30.6;;
58306;SDS011;44116;50.884;4.768;2022-12-05T04:20:53;73.3;;;31.3;;
58306;SDS011;44116;50.884;4.768;2022-12-05T04:22:51;72.4;;;31.5;;
58306;SDS011;44116;50.884;4.768;2022-12-05T04:24:52;67.8;;;31.6;;
58306;SDS011;44116;50.884;4.768;2022-12-05T04:26:57;79.7;;;33.3;;
58306;SDS011;44116;50.884;4.768;2022-12-05T04:28:55;78.3;;;31.2;;
58306;SDS011;44116;50.884;4.768;2022-12-05T04:30:57;75.0;;;31.1;;
58306;SDS011;44116;50.884;4.768;2022-12-05T04:32:54;69.4;;;32.4;;
58306;SDS011;44116;50.884;4.768;2022-12-05T04:34:54;72.5;;;31.5;;
58306;SDS011;44116;50.884;4.768;2022-12-05T04:36:53;78.3;;;33.2;;
58306;SDS011;44116;50.884;4.768;2022-12-05T04:38:50;75.3;;;31.9;;
58306;SDS011;44116;50.884;4.768;2022-12-05T04:40:50;76.6;;;32.5;;
58306;SDS011;44116;50.884;4.768;2022-12-05T04:42:48;76.3;;;32.0;;
58306;SDS011;44116;50.884;4.768;2022-12-05T04:44:48;79.9;;;34.2;;
58306;SDS011;44116;50.884;4.768;2022-12-05T04:46:47;77.1;;;32.6;;
58306;SDS011;44116;50.884;4.768;2022-12-05T04:48:49;80.0;;;32.4;;
58306;SDS011;44116;50.884;4.768;2022-12-05T04:50:47;79.2;;;33.8;;
58306;SDS011;44116;50.884;4.768;2022-12-05T04:52:49;80.0;;;33.3;;
58306;SDS011;44116;50.884;4.768;2022-12-05T04:54:47;81.6;;;33.2;;
58306;SDS011;44116;50.884;4.768;2022-12-05T04:56:45;83.1;;;33.7;;
58306;SDS011;44116;50.884;4.768;2022-12-05T04:58:43;73.6;;;32.0;;
58306;SDS011;44116;50.884;4.768;2022-12-05T05:00:46;79.8;;;33.5;;
58306;SDS011;44116;50.884;4.768;2022-12-05T05:02:46;74.8;;;32.1;;
58306;SDS011;44116;50.884;4.768;2022-12-05T05:04:44;83.4;;;32.5;;
58306;SDS011;44116;50.884;4.768;2022-12-05T05:06:41;76.5;;;32.6;;
58306;SDS011;44116;50.884;4.768;2022-12-05T05:08:46;77.4;;;34.1;;
58306;SDS011;44116;50.884;4.768;2022-12-05T05:10:47;72.2;;;31.4;;
58306;SDS011;44116;50.884;4.768;2022-12-05T05:12:39;75.1;;;32.4;;
58306;SDS011;44116;50.884;4.768;2022-12-05T05:14:39;80.6;;;32.3;;
58306;SDS011;44116;50.884;4.768;2022-12-05T05:16:40;79.3;;;33.5;;
58306;SDS011;44116;50.884;4.768;2022-12-05T05:18:38;84.3;;;33.7;;
58306;SDS011;44116;50.884;4.768;2022-12-05T05:20:38;76.8;;;32.9;;
58306;SDS011;44116;50.884;4.768;2022-12-05T05:22:37;76.2;;;32.5;;
58306;SDS011;44116;50.884;4.768;2022-12-05T05:24:36;77.5;;;33.3;;
58306;SDS011;44116;50.884;4.768;2022-12-05T05:26:37;75.8;;;32.1;;
58306;SDS011;44116;50.884;4.768;2022-12-05T05:28:35;73.7;;;32.9;;
58306;SDS011;44116;50.884;4.768;2022-12-05T05:30:35;76.1;;;34.4;;
58306;SDS011;44116;50.884;4.768;2022-12-05T05:32:34;73.4;;;32.4;;
58306;SDS011;44116;50.884;4.768;2022-12-05T05:34:34;76.9;;;32.2;;
58306;SDS011;44116;50.884;4.768;2022-12-05T05:36:34;72.8;;;32.7;;
58306;SDS011;44116;50.884;4.768;2022-12-05T05:38:34;76.7;;;31.8;;
58306;SDS011;44116;50.884;4.768;2022-12-05T05:40:34;75.1;;;32.1;;
58306;SDS011;44116;50.884;4.768;2022-12-05T05:42:32;76.3;;;33.1;;
58306;SDS011;44116;50.884;4.768;2022-12-05T05:44:31;75.3;;;31.6;;
58306;SDS011;44116;50.884;4.768;2022-12-05T05:46:33;72.8;;;31.0;;
58306;SDS011;44116;50.884;4.768;2022-12-05T05:48:30;78.5;;;31.6;;
58306;SDS011;44116;50.884;4.768;2022-12-05T05:50:30;80.9;;;34.1;;
58306;SDS011;44116;50.884;4.768;2022-12-05T05:52:31;76.1;;;31.7;;
58306;SDS011;44116;50.884;4.768;2022-12-05T05:54:29;74.1;;;31.3;;
58306;SDS011;44116;50.884;4.768;2022-12-05T05:56:29;81.3;;;33.1;;
58306;SDS011;44116;50.884;4.768;2022-12-05T05:58:29;78.9;;;32.5;;
58306;SDS011;44116;50.884;4.768;2022-12-05T06:00:28;74.1;;;32.4;;
58306;SDS011;44116;50.884;4.768;2022-12-05T06:02:31;73.2;;;32.8;;
58306;SDS011;44116;50.884;4.768;2022-12-05T06:04:27;71.0;;;32.7;;
58306;SDS011;44116;50.884;4.768;2022-12-05T06:06:26;73.0;;;31.7;;
58306;SDS011;44116;50.884;4.768;2022-12-05T06:08:28;75.6;;;32.5;;
58306;SDS011;44116;50.884;4.768;2022-12-05T06:10:25;78.1;;;31.4;;
58306;SDS011;44116;50.884;4.768;2022-12-05T06:12:25;74.7;;;32.3;;
58306;SDS011;44116;50.884;4.768;2022-12-05T06:14:24;71.9;;;31.4;;
58306;SDS011;44116;50.884;4.768;2022-12-05T06:16:24;70.0;;;31.0;;
58306;SDS011;44116;50.884;4.768;2022-12-05T06:18:24;73.7;;;32.0;;
58306;SDS011;44116;50.884;4.768;2022-12-05T06:20:23;76.1;;;31.1;;
58306;SDS011;44116;50.884;4.768;2022-12-05T06:22:23;74.5;;;31.7;;
58306;SDS011;44116;50.884;4.768;2022-12-05T06:24:22;74.1;;;31.3;;
58306;SDS011;44116;50.884;4.768;2022-12-05T06:26:22;72.1;;;31.9;;
58306;SDS011;44116;50.884;4.768;2022-12-05T06:28:23;70.4;;;30.0;;
58306;SDS011;44116;50.884;4.768;2022-12-05T06:30:21;70.3;;;31.9;;
58306;SDS011;44116;50.884;4.768;2022-12-05T06:32:20;70.7;;;30.1;;
58306;SDS011;44116;50.884;4.768;2022-12-05T06:34:20;68.2;;;31.1;;
58306;SDS011;44116;50.884;4.768;2022-12-05T06:36:20;67.7;;;30.3;;
58306;SDS011;44116;50.884;4.768;2022-12-05T06:38:19;58.6;;;28.8;;
58306;SDS011;44116;50.884;4.768;2022-12-05T06:40:19;62.0;;;28.7;;
58306;SDS011;44116;50.884;4.768;2022-12-05T06:42:18;57.0;;;28.2;;
58306;SDS011;44116;50.884;4.768;2022-12-05T06:44:17;66.3;;;29.7;;
58306;SDS011;44116;50.884;4.768;2022-12-05T06:46:17;56.3;;;27.5;;
58306;SDS011;44116;50.884;4.768;2022-12-05T06:48:16;56.9;;;28.9;;
58306;SDS011;44116;50.884;4.768;2022-12-05T06:50:16;56.0;;;27.1;;
58306;SDS011;44116;50.884;4.768;2022-12-05T06:52:16;60.9;;;28.4;;
58306;SDS011;44116;50.884;4.768;2022-12-05T06:54:15;52.4;;;27.1;;
58306;SDS011;44116;50.884;4.768;2022-12-05T06:56:17;58.2;;;28.1;;
58306;SDS011;44116;50.884;4.768;2022-12-05T06:58:14;60.2;;;27.7;;
58306;SDS011;44116;50.884;4.768;2022-12-05T07:00:15;55.7;;;26.9;;
58306;SDS011;44116;50.884;4.768;2022-12-05T07:02:13;54.0;;;26.8;;
58306;SDS011;44116;50.884;4.768;2022-12-05T07:04:15;59.0;;;27.3;;
58306;SDS011;44116;50.884;4.768;2022-12-05T07:06:13;53.8;;;26.3;;
58306;SDS011;44116;50.884;4.768;2022-12-05T07:08:12;54.2;;;26.4;;
58306;SDS011;44116;50.884;4.768;2022-12-05T07:10:12;52.2;;;26.7;;
58306;SDS011;44116;50.884;4.768;2022-12-05T07:12:12;52.0;;;26.5;;
58306;SDS011;44116;50.884;4.768;2022-12-05T07:14:11;52.3;;;26.8;;
58306;SDS011;44116;50.884;4.768;2022-12-05T07:16:10;55.9;;;27.8;;
58306;SDS011;44116;50.884;4.768;2022-12-05T07:18:10;52.2;;;26.2;;
58306;SDS011;44116;50.884;4.768;2022-12-05T07:20:10;57.0;;;27.0;;
58306;SDS011;44116;50.884;4.768;2022-12-05T07:22:09;55.9;;;26.2;;
58306;SDS011;44116;50.884;4.768;2022-12-05T07:24:08;54.6;;;26.9;;
58306;SDS011;44116;50.884;4.768;2022-12-05T07:26:10;56.9;;;27.7;;
58306;SDS011;44116;50.884;4.768;2022-12-05T07:28:07;52.3;;;26.9;;
58306;SDS011;44116;50.884;4.768;2022-12-05T07:32:07;50.8;;;25.3;;
58306;SDS011;44116;50.884;4.768;2022-12-05T07:34:06;54.8;;;27.0;;
58306;SDS011;44116;50.884;4.768;2022-12-05T07:36:08;55.0;;;26.9;;
58306;SDS011;44116;50.884;4.768;2022-12-05T07:38:05;53.4;;;26.4;;
58306;SDS011;44116;50.884;4.768;2022-12-05T07:42:05;52.9;;;27.1;;
58306;SDS011;44116;50.884;4.768;2022-12-05T07:44:04;52.8;;;25.9;;
58306;SDS011;44116;50.884;4.768;2022-12-05T07:46:05;52.8;;;25.1;;
58306;SDS011;44116;50.884;4.768;2022-12-05T07:48:03;52.2;;;26.5;;
58306;SDS011;44116;50.884;4.768;2022-12-05T07:50:03;50.6;;;25.4;;
58306;SDS011;44116;50.884;4.768;2022-12-05T07:52:02;51.7;;;26.1;;
58306;SDS011;44116;50.884;4.768;2022-12-05T07:54:02;48.3;;;25.0;;
58306;SDS011;44116;50.884;4.768;2022-12-05T07:56:03;43.8;;;24.8;;
58306;SDS011;44116;50.884;4.768;2022-12-05T07:58:01;50.7;;;24.7;;
58306;SDS011;44116;50.884;4.768;2022-12-05T08:00:00;44.7;;;24.5;;
58306;SDS011;44116;50.884;4.768;2022-12-05T08:02:00;45.6;;;23.4;;
58306;SDS011;44116;50.884;4.768;2022-12-05T08:03:59;45.3;;;23.7;;
58306;SDS011;44116;50.884;4.768;2022-12-05T08:07:58;42.7;;;23.2;;
58306;SDS011;44116;50.884;4.768;2022-12-05T08:09:58;42.9;;;23.0;;
58306;SDS011;44116;50.884;4.768;2022-12-05T08:11:57;45.2;;;24.1;;
58306;SDS011;44116;50.884;4.768;2022-12-05T08:13:57;44.9;;;23.2;;
58306;SDS011;44116;50.884;4.768;2022-12-05T08:16:00;43.9;;;23.7;;
58306;SDS011;44116;50.884;4.768;2022-12-05T08:17:57;45.3;;;23.5;;
58306;SDS011;44116;50.884;4.768;2022-12-05T08:19:56;44.9;;;23.4;;
58306;SDS011;44116;50.884;4.768;2022-12-05T08:21:55;47.5;;;24.3;;
58306;SDS011;44116;50.884;4.768;2022-12-05T08:23:55;46.6;;;23.7;;
58306;SDS011;44116;50.884;4.768;2022-12-05T08:25:54;45.2;;;23.3;;
58306;SDS011;44116;50.884;4.768;2022-12-05T08:27:54;45.8;;;23.9;;
58306;SDS011;44116;50.884;4.768;2022-12-05T08:29:54;48.2;;;23.6;;
58306;SDS011;44116;50.884;4.768;2022-12-05T08:31:53;43.6;;;22.5;;
58306;SDS011;44116;50.884;4.768;2022-12-05T08:33:55;46.6;;;23.3;;
58306;SDS011;44116;50.884;4.768;2022-12-05T08:35:52;46.2;;;22.9;;
58306;SDS011;44116;50.884;4.768;2022-12-05T08:37:52;44.5;;;23.4;;
58306;SDS011;44116;50.884;4.768;2022-12-05T08:39:51;44.3;;;23.3;;
58306;SDS011;44116;50.884;4.768;2022-12-05T08:41:51;42.0;;;22.8;;
58306;SDS011;44116;50.884;4.768;2022-12-05T08:43:50;47.5;;;24.9;;
58306;SDS011;44116;50.884;4.768;2022-12-05T08:45:50;42.9;;;23.6;;
58306;SDS011;44116;50.884;4.768;2022-12-05T08:47:49;43.3;;;23.0;;
58306;SDS011;44116;50.884;4.768;2022-12-05T08:49:49;42.2;;;22.6;;
58306;SDS011;44116;50.884;4.768;2022-12-05T08:51:48;42.9;;;23.1;;
58306;SDS011;44116;50.884;4.768;2022-12-05T08:53:48;41.1;;;22.3;;
58306;SDS011;44116;50.884;4.768;2022-12-05T08:55:47;40.4;;;22.5;;
58306;SDS011;44116;50.884;4.768;2022-12-05T08:57:47;42.1;;;23.0;;
58306;SDS011;44116;50.884;4.768;2022-12-05T09:01:49;45.2;;;22.9;;
58306;SDS011;44116;50.884;4.768;2022-12-05T09:03:46;46.0;;;24.2;;
58306;SDS011;44116;50.884;4.768;2022-12-05T09:05:45;42.3;;;23.8;;
58306;SDS011;44116;50.884;4.768;2022-12-05T09:07:45;43.4;;;23.2;;
58306;SDS011;44116;50.884;4.768;2022-12-05T09:09:44;41.0;;;23.1;;
58306;SDS011;44116;50.884;4.768;2022-12-05T09:11:44;39.4;;;22.6;;
58306;SDS011;44116;50.884;4.768;2022-12-05T09:13:44;43.1;;;24.2;;
58306;SDS011;44116;50.884;4.768;2022-12-05T09:15:43;42.1;;;23.5;;
58306;SDS011;44116;50.884;4.768;2022-12-05T09:17:43;41.5;;;22.4;;
58306;SDS011;44116;50.884;4.768;2022-12-05T09:19:42;41.7;;;23.1;;
58306;SDS011;44116;50.884;4.768;2022-12-05T09:21:43;40.2;;;21.6;;
58306;SDS011;44116;50.884;4.768;2022-12-05T09:23:42;40.8;;;22.3;;
58306;SDS011;44116;50.884;4.768;2022-12-05T09:25:41;41.0;;;23.6;;
58306;SDS011;44116;50.884;4.768;2022-12-05T09:27:40;37.6;;;21.8;;
58306;SDS011;44116;50.884;4.768;2022-12-05T09:29:40;38.0;;;21.6;;
58306;SDS011;44116;50.884;4.768;2022-12-05T09:33:39;41.8;;;21.8;;
58306;SDS011;44116;50.884;4.768;2022-12-05T09:35:38;37.6;;;21.5;;
58306;SDS011;44116;50.884;4.768;2022-12-05T09:37:38;45.4;;;23.5;;
58306;SDS011;44116;50.884;4.768;2022-12-05T09:39:38;40.7;;;22.4;;
58306;SDS011;44116;50.884;4.768;2022-12-05T09:41:49;38.8;;;21.8;;
58306;SDS011;44116;50.884;4.768;2022-12-05T09:43:44;38.4;;;21.3;;
58306;SDS011;44116;50.884;4.768;2022-12-05T09:45:50;37.1;;;20.3;;
58306;SDS011;44116;50.884;4.768;2022-12-05T09:47:45;36.2;;;20.6;;
58306;SDS011;44116;50.884;4.768;2022-12-05T09:49:46;35.6;;;19.9;;
58306;SDS011;44116;50.884;4.768;2022-12-05T09:51:39;35.6;;;20.5;;
58306;SDS011;44116;50.884;4.768;2022-12-05T09:53:36;36.4;;;20.1;;
58306;SDS011;44116;50.884;4.768;2022-12-05T09:57:37;35.2;;;20.4;;
58306;SDS011;44116;50.884;4.768;2022-12-05T10:01:38;38.5;;;20.7;;
58306;SDS011;44116;50.884;4.768;2022-12-05T10:05:39;36.4;;;20.1;;
58306;SDS011;44116;50.884;4.768;2022-12-05T10:07:36;35.4;;;19.1;;
58306;SDS011;44116;50.884;4.768;2022-12-05T10:09:38;34.0;;;19.7;;
58306;SDS011;44116;50.884;4.768;2022-12-05T10:11:35;36.7;;;20.5;;
58306;SDS011;44116;50.884;4.768;2022-12-05T10:13:39;33.5;;;19.5;;
58306;SDS011;44116;50.884;4.768;2022-12-05T10:15:33;33.4;;;19.6;;
58306;SDS011;44116;50.884;4.768;2022-12-05T10:17:32;31.4;;;18.8;;
58306;SDS011;44116;50.884;4.768;2022-12-05T10:19:31;31.4;;;18.9;;
58306;SDS011;44116;50.884;4.768;2022-12-05T10:21:32;31.3;;;18.5;;
58306;SDS011;44116;50.884;4.768;2022-12-05T10:23:30;28.0;;;17.6;;
58306;SDS011;44116;50.884;4.768;2022-12-05T10:25:30;25.4;;;16.0;;
58306;SDS011;44116;50.884;4.768;2022-12-05T10:27:32;28.3;;;17.3;;
58306;SDS011;44116;50.884;4.768;2022-12-05T10:29:30;31.7;;;18.3;;
58306;SDS011;44116;50.884;4.768;2022-12-05T10:33:36;31.3;;;19.2;;
58306;SDS011;44116;50.884;4.768;2022-12-05T10:35:27;35.6;;;20.7;;
58306;SDS011;44116;50.884;4.768;2022-12-05T10:37:25;34.0;;;20.9;;
58306;SDS011;44116;50.884;4.768;2022-12-05T10:39:25;35.5;;;21.3;;
58306;SDS011;44116;50.884;4.768;2022-12-05T10:41:25;32.2;;;20.3;;
58306;SDS011;44116;50.884;4.768;2022-12-05T10:43:26;31.8;;;20.2;;
58306;SDS011;44116;50.884;4.768;2022-12-05T10:45:23;30.5;;;19.4;;
58306;SDS011;44116;50.884;4.768;2022-12-05T10:49:23;29.1;;;19.1;;
58306;SDS011;44116;50.884;4.768;2022-12-05T10:51:26;31.1;;;19.6;;
58306;SDS011;44116;50.884;4.768;2022-12-05T10:53:24;30.5;;;19.8;;
58306;SDS011;44116;50.884;4.768;2022-12-05T10:55:21;31.5;;;19.9;;
58306;SDS011;44116;50.884;4.768;2022-12-05T10:57:22;31.3;;;20.5;;
58306;SDS011;44116;50.884;4.768;2022-12-05T10:59:21;31.1;;;19.6;;
58306;SDS011;44116;50.884;4.768;2022-12-05T11:01:20;32.1;;;20.6;;
58306;SDS011;44116;50.884;4.768;2022-12-05T11:03:24;29.7;;;19.9;;
58306;SDS011;44116;50.884;4.768;2022-12-05T11:05:28;33.0;;;19.8;;
58306;SDS011;44116;50.884;4.768;2022-12-05T11:07:25;31.5;;;20.4;;
58306;SDS011;44116;50.884;4.768;2022-12-05T11:09:19;31.4;;;19.6;;
58306;SDS011;44116;50.884;4.768;2022-12-05T11:11:19;29.6;;;19.7;;
58306;SDS011;44116;50.884;4.768;2022-12-05T11:13:24;31.0;;;20.1;;
58306;SDS011;44116;50.884;4.768;2022-12-05T11:15:21;32.5;;;20.5;;
58306;SDS011;44116;50.884;4.768;2022-12-05T11:17:23;33.8;;;20.7;;
58306;SDS011;44116;50.884;4.768;2022-12-05T11:19:24;32.9;;;21.1;;
58306;SDS011;44116;50.884;4.768;2022-12-05T11:21:15;31.8;;;20.5;;
58306;SDS011;44116;50.884;4.768;2022-12-05T11:23:22;32.2;;;20.7;;
58306;SDS011;44116;50.884;4.768;2022-12-05T11:25:23;31.5;;;19.4;;
58306;SDS011;44116;50.884;4.768;2022-12-05T11:27:25;27.6;;;18.6;;
58306;SDS011;44116;50.884;4.768;2022-12-05T11:29:28;27.8;;;18.1;;
58306;SDS011;44116;50.884;4.768;2022-12-05T11:31:25;27.4;;;18.7;;
58306;SDS011;44116;50.884;4.768;2022-12-05T11:33:19;28.3;;;18.8;;
58306;SDS011;44116;50.884;4.768;2022-12-05T11:35:21;27.5;;;17.0;;
58306;SDS011;44116;50.884;4.768;2022-12-05T11:37:15;24.8;;;16.7;;
58306;SDS011;44116;50.884;4.768;2022-12-05T11:39:12;23.7;;;16.1;;
58306;SDS011;44116;50.884;4.768;2022-12-05T11:41:25;22.7;;;15.0;;
58306;SDS011;44116;50.884;4.768;2022-12-05T11:43:29;20.9;;;14.5;;
58306;SDS011;44116;50.884;4.768;2022-12-05T11:45:19;21.7;;;15.2;;
58306;SDS011;44116;50.884;4.768;2022-12-05T11:47:21;20.8;;;13.7;;
58306;SDS011;44116;50.884;4.768;2022-12-05T11:49:23;20.1;;;14.0;;
58306;SDS011;44116;50.884;4.768;2022-12-05T11:51:22;19.4;;;13.6;;
58306;SDS011;44116;50.884;4.768;2022-12-05T11:53:24;20.3;;;13.5;;
58306;SDS011;44116;50.884;4.768;2022-12-05T11:55:13;21.1;;;14.2;;
58306;SDS011;44116;50.884;4.768;2022-12-05T11:57:15;19.1;;;13.3;;
58306;SDS011;44116;50.884;4.768;2022-12-05T11:59:17;19.4;;;13.0;;
58306;SDS011;44116;50.884;4.768;2022-12-05T12:05:13;19.2;;;13.4;;
58306;SDS011;44116;50.884;4.768;2022-12-05T12:07:15;20.1;;;13.6;;
58306;SDS011;44116;50.884;4.768;2022-12-05T12:09:20;18.7;;;12.5;;
58306;SDS011;44116;50.884;4.768;2022-12-05T12:11:10;18.2;;;13.1;;
58306;SDS011;44116;50.884;4.768;2022-12-05T12:13:18;18.1;;;12.3;;
58306;SDS011;44116;50.884;4.768;2022-12-05T12:17:10;18.3;;;12.8;;
58306;SDS011;44116;50.884;4.768;2022-12-05T12:19:24;18.4;;;12.9;;
58306;SDS011;44116;50.884;4.768;2022-12-05T12:21:12;17.6;;;12.3;;
58306;SDS011;44116;50.884;4.768;2022-12-05T12:23:16;18.4;;;13.2;;
58306;SDS011;44116;50.884;4.768;2022-12-05T12:25:16;17.4;;;12.2;;
58306;SDS011;44116;50.884;4.768;2022-12-05T12:27:08;17.4;;;12.3;;
58306;SDS011;44116;50.884;4.768;2022-12-05T12:29:06;18.5;;;13.4;;
58306;SDS011;44116;50.884;4.768;2022-12-05T12:31:14;17.5;;;12.8;;
58306;SDS011;44116;50.884;4.768;2022-12-05T12:33:04;17.5;;;13.1;;
58306;SDS011;44116;50.884;4.768;2022-12-05T12:35:16;17.5;;;12.3;;
58306;SDS011;44116;50.884;4.768;2022-12-05T12:37:04;19.0;;;12.9;;